createdAt,value
2022-07-30T00:00:36.094Z,5.10
2022-07-30T00:03:04.923Z,5.32
2022-07-30T00:05:33.684Z,5.13
2022-07-30T00:08:02.552Z,5.32
2022-07-30T00:10:31.365Z,4.97
2022-07-30T00:13:00.146Z,5.30
2022-07-30T00:15:30.510Z,5.50
2022-07-30T00:17:59.256Z,5.47
2022-07-30T00:20:29.129Z,4.97
2022-07-30T00:22:58.077Z,5.90
2022-07-30T00:25:27.014Z,5.20
2022-07-30T00:27:55.678Z,5.15
2022-07-30T00:30:24.715Z,5.40
2022-07-30T00:32:55.950Z,5.55
2022-07-30T00:35:24.831Z,5.15
2022-07-30T00:37:56.457Z,5.30
2022-07-30T00:40:25.415Z,4.90
2022-07-30T00:42:54.216Z,5.30
2022-07-30T00:45:23.343Z,5.35
2022-07-30T00:47:52.140Z,4.90
2022-07-30T00:50:22.390Z,4.85
2022-07-30T00:52:51.181Z,4.35
2022-07-30T00:55:20.234Z,4.97
2022-07-30T00:57:48.954Z,4.82
2022-07-30T01:00:20.631Z,5.07
2022-07-30T01:02:49.571Z,4.50
2022-07-30T01:05:18.534Z,5.10
2022-07-30T01:07:48.677Z,5.00
2022-07-30T01:10:17.753Z,5.10
2022-07-30T01:12:47.901Z,4.63
2022-07-30T01:15:17.989Z,4.88
2022-07-30T01:17:52.920Z,5.53
2022-07-30T01:20:30.111Z,5.25
2022-07-30T01:23:11.866Z,5.30
2022-07-30T01:25:58.166Z,5.53
2022-07-30T01:28:33.630Z,6.00
2022-07-30T01:31:05.084Z,5.38
2022-07-30T01:33:38.613Z,5.05
2022-07-30T01:36:14.308Z,5.45
2022-07-30T01:38:47.104Z,5.10
2022-07-30T01:41:19.407Z,5.75
2022-07-30T01:43:48.964Z,5.60
2022-07-30T01:46:20.425Z,5.80
2022-07-30T01:48:52.951Z,5.68
2022-07-30T01:51:21.960Z,5.38
2022-07-30T01:53:55.411Z,5.10
2022-07-30T01:56:27.609Z,5.32
2022-07-30T01:59:00.241Z,5.47
2022-07-30T02:01:30.482Z,5.32
2022-07-30T02:04:04.587Z,5.90
2022-07-30T02:06:43.574Z,6.43
2022-07-30T02:09:23.424Z,6.00
2022-07-30T02:12:14.896Z,6.25
2022-07-30T02:14:51.284Z,6.43
2022-07-30T02:17:30.491Z,5.75
2022-07-30T02:20:11.946Z,5.75
2022-07-30T02:22:48.421Z,5.55
2022-07-30T02:25:22.021Z,5.20
2022-07-30T02:27:58.620Z,5.70
2022-07-30T02:30:31.901Z,6.00
2022-07-30T02:33:08.453Z,6.07
2022-07-30T02:35:39.616Z,5.90
2022-07-30T02:38:10.472Z,6.28
2022-07-30T02:40:44.699Z,5.85
2022-07-30T02:43:17.426Z,5.68
2022-07-30T02:45:49.838Z,6.90
2022-07-30T02:48:34.662Z,6.68
2022-07-30T02:51:07.841Z,7.00
2022-07-30T02:53:39.660Z,6.60
2022-07-30T02:56:10.924Z,6.80
2022-07-30T02:58:43.361Z,6.47
2022-07-30T03:01:16.797Z,6.72
2022-07-30T03:03:47.797Z,6.97
2022-07-30T03:06:17.703Z,7.28
2022-07-30T03:08:47.745Z,6.93
2022-07-30T03:11:20.239Z,7.20
2022-07-30T03:13:51.425Z,7.15
2022-07-30T03:16:23.682Z,6.72
2022-07-30T03:18:55.937Z,7.68
2022-07-30T03:21:28.913Z,7.38
2022-07-30T03:24:03.354Z,7.38
2022-07-30T03:26:36.555Z,7.30
2022-07-30T03:29:10.678Z,7.30
2022-07-30T03:31:42.893Z,7.30
2022-07-30T03:34:14.711Z,6.85
2022-07-30T03:36:43.707Z,6.78
2022-07-30T03:39:13.677Z,6.30
2022-07-30T03:41:42.926Z,6.55
2022-07-30T03:44:17.794Z,6.93
2022-07-30T03:46:50.614Z,7.30
2022-07-30T03:49:22.748Z,7.32
2022-07-30T03:54:54.585Z,6.90
2022-07-30T03:57:41.915Z,7.22
2022-07-30T04:00:17.331Z,6.50
2022-07-30T04:02:52.421Z,7.68
2022-07-30T04:05:47.274Z,6.88
2022-07-30T04:08:16.118Z,7.53
2022-07-30T04:10:46.060Z,7.43
2022-07-30T04:13:41.628Z,7.50
2022-07-30T04:16:41.643Z,7.60
2022-07-30T04:19:20.081Z,7.32
2022-07-30T04:21:52.111Z,7.95
2022-07-30T04:24:23.484Z,7.85
2022-07-30T04:26:53.563Z,7.60
2022-07-30T04:29:24.724Z,7.68
2022-07-30T04:31:57.739Z,7.43
2022-07-30T04:34:55.675Z,7.15
2022-07-30T04:37:44.283Z,8.15
2022-07-30T04:40:13.298Z,7.47
2022-07-30T04:42:42.075Z,7.53
2022-07-30T04:45:13.422Z,8.27
2022-07-30T04:48:04.002Z,7.95
2022-07-30T04:50:58.763Z,8.15
2022-07-30T04:53:29.969Z,7.80
2022-07-30T04:56:05.509Z,7.78
2022-07-30T04:58:37.524Z,7.90
2022-07-30T05:01:07.340Z,8.27
2022-07-30T05:03:41.336Z,8.18
2022-07-30T05:06:14.050Z,7.80
2022-07-30T05:08:43.888Z,7.90
2022-07-30T05:11:14.460Z,7.53
2022-07-30T05:13:46.096Z,7.90
2022-07-30T05:16:17.395Z,8.07
2022-07-30T05:18:47.904Z,8.15
2022-07-30T05:21:17.270Z,7.95
2022-07-30T05:23:50.120Z,8.00
2022-07-30T05:26:54.604Z,7.68
2022-07-30T05:29:24.865Z,7.88
2022-07-30T05:32:02.698Z,8.18
2022-07-30T05:34:36.351Z,7.60
2022-07-30T05:37:29.850Z,7.93
2022-07-30T05:40:03.277Z,7.85
2022-07-30T05:42:52.626Z,7.50
2022-07-30T05:45:23.747Z,7.82
2022-07-30T05:47:52.839Z,8.25
2022-07-30T05:50:24.687Z,8.57
2022-07-30T05:52:53.822Z,7.88
2022-07-30T05:55:42.626Z,8.10
2022-07-30T05:58:37.431Z,7.82
2022-07-30T06:01:07.336Z,8.07
2022-07-30T06:03:37.980Z,7.35
2022-07-30T06:06:31.984Z,8.13
2022-07-30T06:09:01.433Z,8.27
2022-07-30T06:11:34.459Z,7.80
2022-07-30T06:14:03.911Z,8.18
2022-07-30T06:16:32.910Z,8.63
2022-07-30T06:19:02.172Z,8.48
2022-07-30T06:22:01.720Z,8.52
2022-07-30T06:24:37.492Z,8.60
2022-07-30T06:27:11.867Z,8.95
2022-07-30T06:29:41.409Z,8.15
2022-07-30T06:32:11.168Z,8.15
2022-07-30T06:34:40.052Z,8.40
2022-07-30T06:37:11.155Z,8.20
2022-07-30T06:39:57.376Z,8.13
2022-07-30T06:42:27.147Z,8.60
2022-07-30T06:45:14.694Z,7.30
2022-07-30T06:48:22.597Z,7.82
2022-07-30T06:50:51.756Z,7.93
2022-07-30T06:53:21.950Z,7.45
2022-07-30T06:56:10.683Z,7.25
2022-07-30T06:58:52.549Z,8.40
2022-07-30T07:01:39.814Z,7.95
2022-07-30T07:04:10.800Z,7.80
2022-07-30T07:06:42.148Z,8.48
2022-07-30T07:09:14.341Z,8.80
2022-07-30T07:11:52.625Z,8.82
2022-07-30T07:14:22.138Z,8.13
2022-07-30T07:16:51.261Z,8.23
2022-07-30T07:20:01.336Z,10.35
2022-07-30T07:22:36.502Z,9.57
2022-07-30T07:25:08.861Z,9.90
2022-07-30T07:27:39.192Z,8.98
2022-07-30T07:30:09.901Z,8.25
2022-07-30T07:32:39.679Z,7.90
2022-07-30T07:35:10.166Z,7.80
2022-07-30T07:37:45.585Z,8.40
2022-07-30T07:40:23.298Z,7.80
2022-07-30T07:42:53.678Z,7.88
2022-07-30T07:45:23.914Z,7.90
2022-07-30T07:48:06.251Z,8.20
2022-07-30T07:50:47.406Z,8.13
2022-07-30T07:53:23.905Z,7.78
2022-07-30T07:55:55.064Z,8.32
2022-07-30T07:58:26.879Z,8.32
2022-07-30T08:00:59.862Z,8.30
2022-07-30T08:03:49.400Z,8.30
2022-07-30T08:06:38.427Z,9.43
2022-07-30T08:09:44.005Z,9.02
2022-07-30T08:15:38.651Z,9.45
2022-07-30T08:18:14.206Z,9.70
2022-07-30T08:21:09.265Z,9.32
2022-07-30T08:23:42.525Z,9.82
2022-07-30T08:26:15.148Z,9.80
2022-07-30T08:28:45.974Z,10.25
2022-07-30T08:31:22.526Z,9.43
2022-07-30T08:33:53.053Z,10.35
2022-07-30T08:36:25.742Z,9.52
2022-07-30T08:38:59.423Z,10.02
2022-07-30T08:41:34.487Z,10.23
2022-07-30T08:44:12.641Z,9.23
2022-07-30T08:46:47.051Z,10.10
2022-07-30T08:49:35.968Z,9.95
2022-07-30T08:52:08.919Z,10.05
2022-07-30T08:54:48.000Z,10.00
2022-07-30T08:57:18.610Z,9.65
2022-07-30T08:59:59.907Z,10.10
2022-07-30T09:02:34.254Z,10.27
2022-07-30T09:05:11.221Z,8.63
2022-07-30T09:07:41.859Z,8.45
2022-07-30T09:10:17.546Z,8.32
2022-07-30T09:12:49.084Z,8.02
2022-07-30T09:15:44.034Z,7.82
2022-07-30T09:18:14.901Z,7.55
2022-07-30T09:20:47.378Z,6.57
2022-07-30T09:23:16.735Z,7.10
2022-07-30T09:26:04.405Z,6.50
2022-07-30T09:29:23.039Z,7.00
2022-07-30T09:32:12.726Z,6.93
2022-07-30T09:35:16.788Z,6.65
2022-07-30T09:38:18.467Z,6.68
2022-07-30T09:41:08.071Z,7.93
2022-07-30T09:43:54.581Z,6.80
2022-07-30T09:46:51.193Z,7.00
2022-07-30T09:49:29.579Z,6.78
2022-07-30T09:52:02.907Z,6.65
2022-07-30T09:54:53.096Z,7.28
2022-07-30T09:57:28.608Z,7.63
2022-07-30T10:03:46.562Z,7.20
2022-07-30T10:06:42.021Z,7.23
2022-07-30T10:09:37.307Z,7.30
2022-07-30T10:12:11.575Z,7.53
2022-07-30T10:14:49.859Z,7.00
2022-07-30T10:17:23.384Z,7.18
2022-07-30T10:20:17.147Z,7.27
2022-07-30T10:23:09.496Z,7.30
2022-07-30T10:25:49.061Z,7.57
2022-07-30T10:28:44.325Z,7.87
2022-07-30T10:31:49.158Z,7.97
2022-07-30T10:34:05.997Z,8.45
2022-07-30T10:36:39.259Z,8.83
2022-07-30T10:39:15.278Z,8.48
2022-07-30T10:42:04.816Z,8.23
2022-07-30T10:45:02.121Z,9.35
2022-07-30T10:47:40.413Z,9.70
2022-07-30T10:50:17.908Z,9.77
2022-07-30T10:52:54.153Z,10.65
2022-07-30T10:55:37.432Z,10.32
2022-07-30T10:58:15.465Z,10.25
2022-07-30T11:01:00.735Z,10.63
2022-07-30T11:03:41.535Z,10.15
2022-07-30T11:06:29.559Z,9.80
2022-07-30T11:08:59.487Z,10.15
2022-07-30T11:12:02.058Z,11.13
2022-07-30T11:15:07.233Z,11.13
2022-07-30T11:18:12.510Z,10.32
2022-07-30T11:20:48.740Z,10.77
2022-07-30T11:23:43.919Z,11.65
2022-07-30T11:26:50.418Z,11.07
2022-07-30T11:29:50.708Z,11.07
2022-07-30T11:32:32.138Z,10.88
2022-07-30T11:35:18.052Z,11.18
2022-07-30T11:38:02.943Z,11.82
2022-07-30T11:40:35.669Z,11.32
2022-07-30T11:43:34.693Z,11.00
2022-07-30T11:46:12.239Z,10.50
2022-07-30T11:48:59.848Z,11.00
2022-07-30T11:51:48.898Z,10.27
2022-07-30T11:57:50.649Z,10.80
2022-07-30T12:01:09.924Z,10.73
2022-07-30T12:05:13.966Z,10.40
2022-07-30T12:08:35.309Z,10.73
2022-07-30T12:11:43.516Z,9.57
2022-07-30T12:15:34.182Z,9.77
2022-07-30T12:19:19.151Z,9.23
2022-07-30T12:22:39.475Z,9.30
2022-07-30T12:25:29.465Z,9.57
2022-07-30T12:29:02.094Z,9.38
2022-07-30T12:32:43.833Z,8.32
2022-07-30T12:35:08.628Z,8.90
2022-07-30T12:37:43.702Z,9.25
2022-07-30T12:40:16.814Z,9.25
2022-07-30T12:47:37.793Z,9.63
2022-07-30T12:50:54.515Z,9.77
2022-07-30T12:53:40.525Z,9.43
2022-07-30T12:56:29.493Z,8.80
2022-07-30T12:59:39.597Z,8.65
2022-07-30T13:02:13.236Z,8.18
2022-07-30T13:05:31.251Z,7.82
2022-07-30T13:09:14.255Z,7.55
2022-07-30T13:20:46.049Z,6.95
2022-07-30T13:23:26.701Z,6.93
2022-07-30T13:26:15.491Z,7.15
2022-07-30T13:28:52.302Z,7.28
2022-07-30T13:31:42.599Z,7.45
2022-07-30T13:35:01.402Z,6.85
2022-07-30T13:41:39.406Z,7.55
2022-07-30T13:44:50.687Z,7.78
2022-07-30T13:48:44.695Z,6.88
2022-07-30T13:51:41.697Z,7.32
2022-07-30T13:55:00.981Z,6.90
2022-07-30T13:57:44.216Z,7.78
2022-07-30T14:00:39.473Z,7.22
2022-07-30T14:03:50.505Z,7.70
2022-07-30T14:10:57.502Z,6.78
2022-07-30T14:13:54.362Z,7.13
2022-07-30T14:20:25.090Z,7.45
2022-07-30T14:23:33.959Z,7.13
2022-07-30T14:27:03.407Z,6.82
2022-07-30T14:29:50.679Z,7.35
2022-07-30T14:32:19.516Z,6.68
2022-07-30T14:34:49.452Z,6.70
2022-07-30T14:37:18.767Z,7.10
2022-07-30T14:39:48.912Z,6.88
2022-07-30T14:42:24.737Z,6.13
2022-07-30T14:45:00.418Z,7.13
2022-07-30T14:47:31.156Z,6.97
2022-07-30T14:50:07.730Z,6.82
2022-07-30T14:52:42.826Z,6.70
2022-07-30T14:55:25.191Z,6.18
2022-07-30T14:58:06.355Z,5.70
2022-07-30T15:00:48.947Z,6.32
2022-07-30T15:03:19.796Z,6.35
2022-07-30T15:05:59.943Z,5.80
2022-07-30T15:08:31.993Z,6.07
2022-07-30T15:11:07.884Z,5.65
2022-07-30T15:13:50.257Z,5.40
2022-07-30T15:16:27.684Z,5.95
2022-07-30T15:18:58.958Z,6.13
2022-07-30T15:21:27.982Z,5.50
2022-07-30T15:23:57.256Z,5.95
2022-07-30T15:26:26.130Z,6.50
2022-07-30T15:28:56.384Z,5.90
2022-07-30T15:31:25.261Z,6.18
2022-07-30T15:33:53.995Z,6.03
2022-07-30T15:36:22.764Z,6.57
2022-07-30T15:38:51.510Z,6.07
2022-07-30T15:41:20.517Z,5.80
2022-07-30T15:43:49.377Z,6.22
2022-07-30T15:46:19.491Z,5.70
2022-07-30T15:48:48.348Z,6.25
2022-07-30T15:51:17.223Z,6.47
2022-07-30T15:53:46.556Z,6.25
2022-07-30T15:56:15.818Z,6.97
2022-07-30T15:58:56.200Z,6.90
2022-07-30T16:01:26.515Z,6.20
2022-07-30T16:03:56.769Z,7.10
2022-07-30T16:06:27.664Z,6.60
2022-07-30T16:08:56.666Z,6.45
2022-07-30T16:11:26.929Z,6.93
2022-07-30T16:13:58.787Z,6.78
2022-07-30T16:16:38.339Z,7.13
2022-07-30T16:19:08.233Z,6.45
2022-07-30T16:21:44.267Z,6.70
2022-07-30T16:24:13.046Z,7.05
2022-07-30T16:26:42.066Z,7.10
2022-07-30T16:29:16.347Z,6.95
2022-07-30T16:31:47.193Z,6.72
2022-07-30T16:34:16.154Z,7.03
2022-07-30T16:36:47.076Z,7.15
2022-07-30T16:39:20.175Z,7.32
2022-07-30T16:41:48.982Z,6.82
2022-07-30T16:44:18.978Z,7.32
2022-07-30T16:46:49.392Z,7.25
2022-07-30T16:49:18.304Z,6.93
2022-07-30T16:51:47.292Z,6.57
2022-07-30T16:54:16.363Z,6.07
2022-07-30T16:56:45.177Z,6.60
2022-07-30T16:59:19.479Z,6.43
2022-07-30T17:01:50.355Z,6.18
2022-07-30T17:04:19.298Z,6.55
2022-07-30T17:06:48.026Z,6.47
2022-07-30T17:09:41.783Z,6.40
2022-07-30T17:12:12.517Z,7.15
2022-07-30T17:14:43.010Z,6.93
2022-07-30T17:17:14.420Z,6.50
2022-07-30T17:19:44.266Z,6.03
2022-07-30T17:22:20.128Z,6.70
2022-07-30T17:25:03.885Z,6.20
2022-07-30T17:27:47.073Z,6.78
2022-07-30T17:33:56.398Z,6.50
2022-07-30T17:36:27.204Z,6.10
2022-07-30T17:38:57.270Z,6.57
2022-07-30T17:41:27.236Z,6.00
2022-07-30T17:44:07.020Z,6.35
2022-07-30T17:46:36.350Z,6.32
2022-07-30T17:49:12.272Z,6.05
2022-07-30T17:51:44.726Z,6.30
2022-07-30T17:54:13.904Z,6.53
2022-07-30T17:56:49.296Z,6.38
2022-07-30T17:59:18.107Z,6.82
2022-07-30T18:02:04.439Z,6.65
2022-07-30T18:04:37.853Z,7.18
2022-07-30T18:07:11.668Z,6.57
2022-07-30T18:09:46.838Z,7.03
2022-07-30T18:12:19.879Z,7.35
2022-07-30T18:15:01.688Z,6.50
2022-07-30T18:17:33.354Z,7.15
2022-07-30T18:20:19.796Z,7.55
2022-07-30T18:22:55.456Z,8.75
2022-07-30T18:25:26.585Z,8.30
2022-07-30T18:27:58.356Z,7.90
2022-07-30T18:30:34.547Z,8.52
2022-07-30T18:33:07.539Z,7.22
2022-07-30T18:35:41.126Z,7.95
2022-07-30T18:38:11.565Z,7.45
2022-07-30T18:40:43.775Z,6.88
2022-07-30T18:43:13.481Z,7.43
2022-07-30T18:45:45.082Z,7.00
2022-07-30T18:48:21.843Z,6.45
2022-07-30T18:50:57.877Z,7.03
2022-07-30T18:53:36.637Z,7.13
2022-07-30T18:56:34.834Z,6.63
2022-07-30T18:59:08.046Z,7.18
2022-07-30T19:02:11.906Z,7.05
2022-07-30T19:04:43.096Z,6.95
2022-07-30T19:07:16.234Z,6.93
2022-07-30T19:09:48.232Z,6.75
2022-07-30T19:12:22.309Z,6.55
2022-07-30T19:14:51.638Z,19.23
2022-07-30T19:17:46.597Z,6.03
2022-07-30T19:20:14.697Z,7.07
2022-07-30T19:22:47.103Z,7.15
2022-07-30T19:25:18.230Z,6.20
2022-07-30T19:27:48.188Z,6.70
2022-07-30T19:30:18.070Z,6.70
2022-07-30T19:32:50.192Z,6.75
2022-07-30T19:35:20.148Z,7.03
2022-07-30T19:37:51.490Z,7.18
2022-07-30T19:40:21.988Z,7.22
2022-07-30T19:42:52.638Z,7.00
2022-07-30T19:45:26.469Z,6.85
2022-07-30T19:48:29.701Z,6.97
2022-07-30T19:51:05.478Z,7.65
2022-07-30T19:53:47.122Z,7.28
2022-07-30T19:56:16.706Z,7.70
2022-07-30T19:58:46.497Z,7.43
2022-07-30T20:01:16.949Z,7.47
2022-07-30T20:03:46.741Z,7.97
2022-07-30T20:06:17.018Z,7.53
2022-07-30T20:08:49.753Z,7.30
2022-07-30T20:11:20.955Z,7.78
2022-07-30T20:14:04.190Z,8.10
2022-07-30T20:16:33.570Z,7.95
2022-07-30T20:19:04.753Z,7.93
2022-07-30T20:21:56.565Z,7.70
2022-07-30T20:24:28.046Z,8.20
2022-07-30T20:26:58.089Z,7.75
2022-07-30T20:29:27.688Z,7.65
2022-07-30T20:31:59.612Z,7.20
2022-07-30T20:34:30.876Z,7.47
2022-07-30T20:37:04.308Z,7.25
2022-07-30T20:39:52.251Z,7.67
2022-07-30T20:42:24.259Z,7.75
2022-07-30T20:44:57.114Z,7.60
2022-07-30T20:47:34.564Z,7.15
2022-07-30T20:50:10.997Z,7.65
2022-07-30T20:52:46.426Z,8.07
2022-07-30T20:55:22.091Z,8.15
2022-07-30T20:57:58.745Z,7.40
2022-07-30T21:00:34.127Z,8.18
2022-07-30T21:03:03.701Z,7.93
2022-07-30T21:05:32.656Z,8.05
2022-07-30T21:08:01.375Z,8.40
2022-07-30T21:10:31.461Z,8.03
2022-07-30T21:13:03.760Z,7.43
2022-07-30T21:15:37.245Z,7.57
2022-07-30T21:18:25.972Z,7.83
2022-07-30T21:20:56.893Z,7.70
2022-07-30T21:23:27.083Z,7.90
2022-07-30T21:26:01.638Z,7.53
2022-07-30T21:28:35.175Z,7.50
2022-07-30T21:31:07.172Z,7.77
2022-07-30T21:33:37.393Z,6.90
2022-07-30T21:36:10.502Z,7.70
2022-07-30T21:38:41.877Z,7.60
2022-07-30T21:41:14.145Z,8.03
2022-07-30T21:43:45.264Z,7.07
2022-07-30T21:46:15.593Z,7.23
2022-07-30T21:48:56.692Z,7.50
2022-07-30T21:51:28.802Z,8.63
2022-07-30T21:53:59.117Z,7.20
2022-07-30T21:56:29.537Z,7.57
2022-07-30T21:58:58.840Z,7.60
2022-07-30T22:01:29.112Z,7.67
2022-07-30T22:04:07.863Z,7.37
2022-07-30T22:06:41.215Z,7.07
2022-07-30T22:09:19.479Z,7.23
2022-07-30T22:12:09.353Z,6.83
2022-07-30T22:14:40.854Z,7.40
2022-07-30T22:17:22.475Z,7.07
2022-07-30T22:19:54.580Z,7.13
2022-07-30T22:22:27.270Z,7.30
2022-07-30T22:24:59.875Z,7.20
2022-07-30T22:27:39.615Z,7.33
2022-07-30T22:30:14.179Z,7.23
2022-07-30T22:32:43.547Z,7.33
2022-07-30T22:35:16.319Z,7.73
2022-07-30T22:37:46.059Z,7.60
2022-07-30T22:40:15.189Z,7.93
2022-07-30T22:42:49.897Z,7.70
2022-07-30T22:45:44.843Z,7.70
2022-07-30T22:48:11.116Z,6.67
2022-07-30T22:50:41.014Z,7.03
2022-07-30T22:53:23.273Z,7.43
2022-07-30T22:55:59.453Z,7.60
2022-07-30T22:58:30.020Z,7.03
2022-07-30T23:00:58.784Z,7.30
2022-07-30T23:03:27.565Z,6.83
2022-07-30T23:05:57.156Z,7.10
2022-07-30T23:08:30.397Z,7.50
2022-07-30T23:11:00.298Z,7.33
2022-07-30T23:13:30.609Z,7.90
2022-07-30T23:15:59.444Z,7.60
2022-07-30T23:18:28.927Z,7.10
2022-07-30T23:21:00.379Z,7.37
2022-07-30T23:23:30.931Z,7.07
2022-07-30T23:26:03.201Z,7.33
2022-07-30T23:28:33.724Z,7.43
2022-07-30T23:31:03.597Z,8.03
2022-07-30T23:33:34.229Z,7.50
2022-07-30T23:36:05.569Z,7.50
2022-07-30T23:38:35.011Z,8.03
2022-07-30T23:41:05.855Z,6.93
2022-07-30T23:43:36.764Z,6.93
2022-07-30T23:46:09.704Z,7.43
2022-07-30T23:48:39.933Z,7.37
2022-07-30T23:51:08.765Z,7.10
2022-07-30T23:53:37.547Z,7.37
2022-07-30T23:56:08.107Z,7.40
2022-07-30T23:58:40.669Z,7.30
